Time;durP1;ratioP1;P1;durP2;ratioP2;P2;SDS_P1;SDS_P2;PMS_P1;PMS_P2;Temp;Humidity;BMP_temperature;BMP_pressure;BME280_temperature;BME280_humidity;BME280_pressure;Samples;Min_cycle;Max_cycle;Signal;HPM_P1;HPM_P2
2021/01/23 00:01:22;;;;;;;17.33;6.90;;;2.20;99.90;;;;;;4911522;29;20033;-72
2021/01/23 00:03:48;;;;;;;9.73;6.35;;;2.20;99.90;;;;;;4911538;29;20033;-72
2021/01/23 00:06:13;;;;;;;12.40;5.75;;;2.20;99.90;;;;;;4911499;29;20052;-73
2021/01/23 00:08:39;;;;;;;12.48;5.25;;;2.20;99.90;;;;;;4911284;29;20491;-72
2021/01/23 00:11:04;;;;;;;11.48;5.90;;;2.20;99.90;;;;;;4911498;29;20056;-72
2021/01/23 00:13:30;;;;;;;10.68;5.32;;;2.10;99.90;;;;;;4911599;29;20369;-72
2021/01/23 00:15:56;;;;;;;13.93;5.50;;;2.10;99.90;;;;;;4909743;29;20048;-72
2021/01/23 00:18:22;;;;;;;12.57;6.10;;;2.10;99.90;;;;;;4911096;29;20107;-72
2021/01/23 00:20:47;;;;;;;10.93;6.20;;;2.00;99.90;;;;;;4911011;29;20425;-72
2021/01/23 00:23:13;;;;;;;11.77;5.47;;;2.00;99.90;;;;;;4910924;29;20039;-73
2021/01/23 00:25:39;;;;;;;7.25;4.88;;;1.90;99.90;;;;;;4910954;29;20489;-72
2021/01/23 00:28:06;;;;;;;13.00;6.10;;;1.90;99.90;;;;;;4910656;29;20056;-72
2021/01/23 00:30:32;;;;;;;11.07;5.43;;;1.90;99.90;;;;;;4910933;29;20060;-72
2021/01/23 00:32:58;;;;;;;14.77;6.43;;;1.80;99.90;;;;;;4911282;29;20036;-72
2021/01/23 00:35:24;;;;;;;14.98;6.57;;;1.90;99.90;;;;;;4909475;29;20059;-72
2021/01/23 00:37:49;;;;;;;11.27;6.43;;;1.80;99.90;;;;;;4910939;29;20048;-72
2021/01/23 00:40:16;;;;;;;27.58;7.40;;;1.90;99.90;;;;;;4911103;29;20036;-71
2021/01/23 00:42:41;;;;;;;18.05;7.40;;;1.90;99.90;;;;;;4909893;29;20041;-72
2021/01/23 00:45:08;;;;;;;20.45;6.15;;;1.90;99.90;;;;;;4910881;29;20057;-72
2021/01/23 00:47:34;;;;;;;13.00;7.30;;;2.00;99.90;;;;;;4910909;29;20032;-72
2021/01/23 00:50:00;;;;;;;11.77;6.45;;;2.00;99.90;;;;;;4910696;29;20115;-73
2021/01/23 00:52:25;;;;;;;17.88;8.05;;;2.00;99.90;;;;;;4910971;29;20397;-72
2021/01/23 00:54:51;;;;;;;22.92;6.20;;;2.00;99.90;;;;;;4910547;29;20452;-72
2021/01/23 00:57:17;;;;;;;15.65;7.20;;;1.90;99.90;;;;;;4909781;29;20052;-73
2021/01/23 00:59:43;;;;;;;17.98;6.88;;;1.90;99.90;;;;;;4910570;29;20033;-72
2021/01/23 01:02:08;;;;;;;17.20;6.72;;;1.90;99.90;;;;;;4910193;29;20033;-72
2021/01/23 01:04:34;;;;;;;23.35;6.15;;;1.90;99.90;;;;;;4910340;29;20043;-72
2021/01/23 01:07:00;;;;;;;12.77;6.47;;;1.90;99.90;;;;;;4910826;29;20056;-73
2021/01/23 01:09:25;;;;;;;14.13;7.15;;;1.90;99.90;;;;;;4910292;29;20101;-71
2021/01/23 01:11:51;;;;;;;13.48;7.00;;;1.90;99.90;;;;;;4910173;29;20064;-72
2021/01/23 01:14:16;;;;;;;21.23;7.95;;;1.90;99.90;;;;;;4910204;29;20024;-73
2021/01/23 01:16:42;;;;;;;16.73;6.70;;;1.90;99.90;;;;;;4909968;29;20052;-72
2021/01/23 01:19:08;;;;;;;13.82;7.47;;;1.90;99.90;;;;;;4908822;29;20039;-72
2021/01/23 01:21:34;;;;;;;17.42;8.00;;;1.90;99.90;;;;;;4910424;29;20064;-72
2021/01/23 01:23:59;;;;;;;12.25;6.47;;;1.80;99.90;;;;;;4909908;29;20033;-74
2021/01/23 01:26:25;;;;;;;18.17;7.15;;;1.80;99.90;;;;;;4909839;29;20020;-72
2021/01/23 01:28:50;;;;;;;15.07;6.93;;;1.80;99.90;;;;;;4909955;29;20036;-72
2021/01/23 01:31:17;;;;;;;15.65;7.43;;;1.80;99.90;;;;;;4909157;29;20111;-72
2021/01/23 01:33:42;;;;;;;16.38;7.00;;;1.80;99.90;;;;;;4910108;29;20100;-72
2021/01/23 01:36:08;;;;;;;15.68;7.50;;;1.80;99.90;;;;;;4908456;29;20041;-72
2021/01/23 01:38:35;;;;;;;22.10;6.95;;;1.90;99.90;;;;;;4909815;29;20049;-73
2021/01/23 01:41:00;;;;;;;15.68;7.35;;;1.80;99.90;;;;;;4910020;29;20033;-73
2021/01/23 01:43:26;;;;;;;20.13;11.55;;;1.80;99.90;;;;;;4909688;29;20088;-71
2021/01/23 01:45:51;;;;;;;16.35;8.23;;;1.80;99.90;;;;;;4909320;29;20501;-72
2021/01/23 01:48:17;;;;;;;16.98;7.72;;;1.80;99.90;;;;;;4908246;29;20100;-72
2021/01/23 01:50:43;;;;;;;20.17;8.73;;;1.80;99.90;;;;;;4908142;29;20037;-72
2021/01/23 01:53:10;;;;;;;18.10;8.27;;;1.80;99.90;;;;;;4909335;29;20064;-72
2021/01/23 01:55:35;;;;;;;14.63;7.90;;;1.90;99.90;;;;;;4908288;29;20033;-73
2021/01/23 01:58:02;;;;;;;16.13;8.18;;;1.90;99.90;;;;;;4909655;29;20520;-72
2021/01/23 02:00:28;;;;;;;15.02;7.32;;;1.80;99.90;;;;;;4909619;29;20032;-72
2021/01/23 02:03:18;;;;;;;15.55;7.35;;;1.80;99.90;;;;;;4909791;29;20025;-72
2021/01/23 02:06:21;;;;;;;19.80;9.13;;;1.80;99.90;;;;;;4909320;29;20033;-71
2021/01/23 02:09:26;;;;;;;17.75;8.15;;;1.80;99.90;;;;;;4909337;29;20393;-71
2021/01/23 02:11:58;;;;;;;18.27;8.38;;;1.80;99.90;;;;;;4901377;29;20040;-71
2021/01/23 02:14:36;;;;;;;18.50;7.63;;;1.70;99.90;;;;;;4909113;29;20495;-71
2021/01/23 02:17:11;;;;;;;17.95;8.25;;;1.70;99.90;;;;;;4908302;29;20071;-72
2021/01/23 02:20:04;;;;;;;21.85;8.02;;;1.80;99.90;;;;;;4909035;29;20084;-73
2021/01/23 02:23:16;;;;;;;18.20;8.45;;;1.70;99.90;;;;;;4907975;29;20393;-73
2021/01/23 02:26:34;;;;;;;20.67;8.50;;;1.80;99.90;;;;;;4908824;29;20604;-71
2021/01/23 02:29:03;;;;;;;16.17;8.43;;;1.70;99.90;;;;;;4888203;29;20131;-72
2021/01/23 02:31:37;;;;;;;19.98;7.90;;;1.80;99.90;;;;;;4905410;29;20433;-73
2021/01/23 02:34:06;;;;;;;22.58;8.10;;;1.80;99.90;;;;;;4908992;29;20041;-72
2021/01/23 02:36:34;;;;;;;20.20;8.88;;;1.80;99.90;;;;;;4909073;29;20048;-73
2021/01/23 02:39:02;;;;;;;25.90;8.43;;;1.80;99.90;;;;;;4909178;29;20060;-72
2021/01/23 02:41:29;;;;;;;20.98;8.40;;;1.80;99.90;;;;;;4909041;29;20477;-72
2021/01/23 02:43:54;;;;;;;18.10;8.30;;;1.80;99.90;;;;;;4913077;29;20056;-71
2021/01/23 02:46:20;;;;;;;22.77;9.05;;;1.80;99.90;;;;;;4912878;29;20033;-71
2021/01/23 02:48:48;;;;;;;18.52;7.93;;;1.80;99.90;;;;;;4912627;29;20037;-72
2021/01/23 02:51:36;;;;;;;15.93;7.40;;;1.80;99.90;;;;;;4911568;29;20092;-71
2021/01/23 02:54:08;;;;;;;19.77;9.40;;;1.70;99.90;;;;;;4902556;29;20044;-72
2021/01/23 02:56:34;;;;;;;15.63;8.13;;;1.70;99.90;;;;;;4912431;29;20044;-72
2021/01/23 02:59:02;;;;;;;19.00;7.82;;;1.70;99.90;;;;;;4911487;29;20028;-71
2021/01/23 03:01:34;;;;;;;15.75;8.18;;;1.70;99.90;;;;;;4912554;29;20584;-72
2021/01/23 03:04:01;;;;;;;28.27;10.38;;;1.70;99.90;;;;;;4912713;29;20085;-71
2021/01/23 03:06:27;;;;;;;20.20;9.55;;;1.70;99.90;;;;;;4912243;29;20036;-71
2021/01/23 03:08:53;;;;;;;20.60;9.05;;;1.70;99.90;;;;;;4912201;29;20044;-71
2021/01/23 03:11:18;;;;;;;22.80;8.77;;;1.70;99.90;;;;;;4912415;29;20080;-71
2021/01/23 03:13:44;;;;;;;22.88;9.25;;;1.70;99.90;;;;;;4912600;29;20037;-71
2021/01/23 03:16:09;;;;;;;19.95;8.60;;;1.70;99.90;;;;;;4909759;29;20044;-71
2021/01/23 03:18:35;;;;;;;19.73;8.15;;;1.60;99.90;;;;;;4912182;29;20029;-72
2021/01/23 03:21:01;;;;;;;20.02;8.45;;;1.60;99.90;;;;;;4915935;29;20028;-72
2021/01/23 03:23:26;;;;;;;26.73;10.57;;;1.60;99.90;;;;;;4910626;29;20024;-72
2021/01/23 03:25:52;;;;;;;23.20;10.30;;;1.70;99.90;;;;;;4912186;29;20041;-72
2021/01/23 03:28:19;;;;;;;21.90;9.75;;;1.70;99.90;;;;;;4912011;29;20143;-72
2021/01/23 03:30:45;;;;;;;23.35;8.43;;;1.70;99.90;;;;;;4911684;29;20393;-72
2021/01/23 03:33:11;;;;;;;23.25;9.98;;;1.70;99.90;;;;;;4912203;29;20032;-72
2021/01/23 03:35:36;;;;;;;18.90;8.82;;;1.60;99.90;;;;;;4910598;29;20029;-72
2021/01/23 03:38:03;;;;;;;15.65;7.78;;;1.70;99.90;;;;;;4911878;29;20047;-73
2021/01/23 03:40:30;;;;;;;19.52;8.68;;;1.70;99.90;;;;;;4912378;29;20032;-73
2021/01/23 03:42:55;;;;;;;17.90;8.68;;;1.70;99.90;;;;;;4911882;29;20029;-71
2021/01/23 03:45:21;;;;;;;16.27;8.27;;;1.70;99.90;;;;;;4913172;29;20039;-72
2021/01/23 03:47:47;;;;;;;18.23;8.10;;;1.70;99.90;;;;;;4911590;29;20043;-73
2021/01/23 03:50:13;;;;;;;21.50;9.63;;;1.70;99.90;;;;;;4911638;29;20032;-72
2021/01/23 03:52:39;;;;;;;15.38;8.40;;;1.70;99.90;;;;;;4911222;29;20057;-72
2021/01/23 03:55:05;;;;;;;16.52;8.13;;;1.70;99.90;;;;;;4910569;29;20052;-73
2021/01/23 03:57:31;;;;;;;21.15;10.07;;;1.70;99.90;;;;;;4911538;29;20054;-72
2021/01/23 03:59:56;;;;;;;21.75;8.75;;;1.70;99.90;;;;;;4911717;29;20029;-72
2021/01/23 04:02:22;;;;;;;18.83;8.43;;;1.70;99.90;;;;;;4911666;29;20032;-71
2021/01/23 04:04:48;;;;;;;19.38;9.63;;;1.60;99.90;;;;;;4909821;29;20059;-71
2021/01/23 04:07:13;;;;;;;21.20;10.88;;;1.60;99.90;;;;;;4910249;29;20029;-71
2021/01/23 04:09:39;;;;;;;17.25;8.45;;;1.60;99.90;;;;;;4911397;29;20035;-72
2021/01/23 04:12:05;;;;;;;21.05;10.18;;;1.60;99.90;;;;;;4911260;29;20088;-73
2021/01/23 04:14:32;;;;;;;14.65;7.95;;;1.60;99.90;;;;;;4911691;29;20033;-71
2021/01/23 04:16:57;;;;;;;16.80;9.23;;;1.60;99.90;;;;;;4911454;29;20051;-71
2021/01/23 04:19:23;;;;;;;19.17;9.27;;;1.60;99.90;;;;;;4911041;29;20120;-72
2021/01/23 04:21:48;;;;;;;19.98;9.25;;;1.60;99.90;;;;;;4911287;29;20029;-71
2021/01/23 04:24:14;;;;;;;29.38;9.57;;;1.60;99.90;;;;;;4911360;29;20033;-71
2021/01/23 04:26:39;;;;;;;23.33;10.07;;;1.60;99.90;;;;;;4910557;29;20057;-71
2021/01/23 04:29:06;;;;;;;19.98;9.15;;;1.60;99.90;;;;;;4911062;29;20060;-72
2021/01/23 04:31:33;;;;;;;17.85;9.30;;;1.50;99.90;;;;;;4911092;29;20085;-71
2021/01/23 04:33:59;;;;;;;22.13;10.43;;;1.50;99.90;;;;;;4911178;29;20029;-72
2021/01/23 04:36:24;;;;;;;18.58;8.70;;;1.50;99.90;;;;;;4910950;29;20076;-71
2021/01/23 04:38:50;;;;;;;21.30;10.18;;;1.50;99.90;;;;;;4909408;29;20036;-71
2021/01/23 04:41:15;;;;;;;24.10;10.52;;;1.50;99.90;;;;;;4910854;29;20031;-72
2021/01/23 04:43:45;;;;;;;23.60;9.10;;;1.50;99.90;;;;;;4910997;29;20088;-72
2021/01/23 04:46:11;;;;;;;24.20;7.97;;;1.50;99.90;;;;;;4910868;29;20084;-72
2021/01/23 04:48:37;;;;;;;15.50;8.65;;;1.40;99.90;;;;;;4910531;29;20033;-72
2021/01/23 04:51:02;;;;;;;18.13;8.68;;;1.40;99.90;;;;;;4910725;29;20031;-72
2021/01/23 04:53:29;;;;;;;23.63;11.13;;;1.40;99.90;;;;;;4910715;29;20025;-71
2021/01/23 04:55:55;;;;;;;20.75;9.75;;;1.30;99.90;;;;;;4910675;29;20043;-71
2021/01/23 04:58:20;;;;;;;23.08;9.80;;;1.30;99.90;;;;;;4910446;29;20542;-72
2021/01/23 05:00:46;;;;;;;17.50;9.05;;;1.30;99.90;;;;;;4910305;29;20044;-72
2021/01/23 05:03:12;;;;;;;30.73;9.98;;;1.30;99.90;;;;;;4910492;29;20029;-71
2021/01/23 05:05:38;;;;;;;22.08;9.18;;;1.30;99.90;;;;;;4909491;29;20057;-72
2021/01/23 05:08:14;;;;;;;20.60;9.18;;;1.30;99.90;;;;;;4909987;29;20032;-73
2021/01/23 05:10:40;;;;;;;20.85;8.73;;;1.30;99.90;;;;;;4910383;29;20168;-72
2021/01/23 05:13:17;;;;;;;23.52;9.55;;;1.30;99.90;;;;;;4909797;29;20024;-72
2021/01/23 05:15:45;;;;;;;18.60;8.68;;;1.30;99.90;;;;;;4909162;29;20056;-72
2021/01/23 05:18:12;;;;;;;24.90;10.98;;;1.30;99.90;;;;;;4910176;29;20059;-73
2021/01/23 05:20:46;;;;;;;24.98;9.40;;;1.30;99.90;;;;;;4910071;29;20076;-73
2021/01/23 05:23:23;;;;;;;25.52;9.05;;;1.30;99.90;;;;;;4891206;29;20041;-72
2021/01/23 05:25:51;;;;;;;15.90;8.38;;;1.30;99.90;;;;;;4889978;29;20093;-72
2021/01/23 05:28:29;;;;;;;20.30;9.07;;;1.30;99.90;;;;;;4903859;29;20044;-72
2021/01/23 05:30:56;;;;;;;25.98;9.35;;;1.30;99.90;;;;;;4910072;29;20432;-72
2021/01/23 05:33:23;;;;;;;22.17;8.70;;;1.30;99.90;;;;;;4908640;29;20024;-72
2021/01/23 05:35:57;;;;;;;18.10;9.38;;;1.30;99.90;;;;;;4909654;29;20066;-71
2021/01/23 05:38:24;;;;;;;23.75;9.95;;;1.30;99.90;;;;;;4909715;29;20519;-71
2021/01/23 05:40:52;;;;;;;17.92;9.50;;;1.30;99.90;;;;;;4909705;29;20035;-72
2021/01/23 05:43:33;;;;;;;14.38;7.63;;;1.30;99.90;;;;;;4909548;29;21278;-71
2021/01/23 05:46:03;;;;;;;21.75;9.00;;;1.30;99.90;;;;;;4909862;29;20028;-72
2021/01/23 05:48:28;;;;;;;21.50;9.65;;;1.30;99.90;;;;;;4910091;29;20028;-72
2021/01/23 05:50:54;;;;;;;17.80;9.63;;;1.30;99.90;;;;;;4909482;29;20052;-71
2021/01/23 05:53:20;;;;;;;21.02;8.48;;;1.30;99.90;;;;;;4909607;29;20075;-71
2021/01/23 05:55:45;;;;;;;20.23;9.07;;;1.30;99.90;;;;;;4909659;29;20040;-71
2021/01/23 05:58:11;;;;;;;19.42;9.27;;;1.30;99.90;;;;;;4909215;29;20044;-71
2021/01/23 06:00:38;;;;;;;16.48;9.15;;;1.20;99.90;;;;;;4909485;29;20080;-71
2021/01/23 06:03:04;;;;;;;18.67;9.23;;;1.30;99.90;;;;;;4909612;29;20029;-72
2021/01/23 06:05:30;;;;;;;14.95;7.45;;;1.30;99.90;;;;;;4909043;29;20029;-72
2021/01/23 06:07:55;;;;;;;22.35;9.27;;;1.30;99.90;;;;;;4909598;29;20029;-72
2021/01/23 06:10:21;;;;;;;20.25;8.32;;;1.30;99.90;;;;;;4909408;29;20029;-72
2021/01/23 06:12:47;;;;;;;19.83;9.27;;;1.20;99.90;;;;;;4907664;29;20061;-72
2021/01/23 06:15:40;;;;;;;16.70;8.38;;;1.20;99.90;;;;;;4909337;29;20047;-72
2021/01/23 06:18:27;;;;;;;27.83;10.02;;;1.20;99.90;;;;;;4907302;29;20044;-74
2021/01/23 06:21:02;;;;;;;17.83;8.50;;;1.20;99.90;;;;;;4909212;29;20168;-72
2021/01/23 06:23:48;;;;;;;20.63;8.55;;;1.20;99.90;;;;;;4909551;29;20111;-72
2021/01/23 06:26:15;;;;;;;28.83;9.93;;;1.20;99.90;;;;;;4908777;29;20044;-72
2021/01/23 06:28:40;;;;;;;22.85;10.25;;;1.20;99.90;;;;;;4908747;29;20131;-72
2021/01/23 06:31:29;;;;;;;25.83;11.50;;;1.20;99.90;;;;;;4909327;29;20036;-74
2021/01/23 06:33:55;;;;;;;18.80;9.05;;;1.20;99.90;;;;;;4909150;29;20060;-74
2021/01/23 06:36:22;;;;;;;18.55;9.25;;;1.20;99.90;;;;;;4909095;29;20044;-73
2021/01/23 06:39:08;;;;;;;24.23;10.57;;;1.20;99.90;;;;;;4909086;29;20028;-73
2021/01/23 06:41:36;;;;;;;27.42;11.52;;;1.20;99.90;;;;;;4908949;29;20024;-73
2021/01/23 06:44:11;;;;;;;31.02;10.93;;;1.20;99.90;;;;;;4909314;29;20024;-72
2021/01/23 06:46:50;;;;;;;22.17;10.15;;;1.20;99.90;;;;;;4908595;29;20064;-73
2021/01/23 06:49:16;;;;;;;19.02;9.88;;;1.20;99.90;;;;;;4907509;29;20036;-73
2021/01/23 06:51:42;;;;;;;26.30;9.27;;;1.20;99.90;;;;;;4909139;29;20053;-73
2021/01/23 06:54:11;;;;;;;17.58;8.73;;;1.20;99.90;;;;;;4907280;29;20071;-75
2021/01/23 06:56:37;;;;;;;23.00;9.93;;;1.20;99.90;;;;;;4906674;29;20052;-74
2021/01/23 06:59:03;;;;;;;24.95;10.65;;;1.20;99.90;;;;;;4908412;29;20033;-74
2021/01/23 07:01:29;;;;;;;18.63;10.90;;;1.20;99.90;;;;;;4908785;29;20036;-75
2021/01/23 07:03:55;;;;;;;19.65;10.15;;;1.20;99.90;;;;;;4907724;29;20036;-74
2021/01/23 07:06:30;;;;;;;24.65;10.00;;;1.20;99.90;;;;;;4907619;29;20033;-74
2021/01/23 07:08:56;;;;;;;18.67;9.30;;;1.20;99.90;;;;;;4908657;29;20040;-73
2021/01/23 07:11:22;;;;;;;21.60;8.57;;;1.20;99.90;;;;;;4908959;29;20471;-73
2021/01/23 07:13:58;;;;;;;31.23;11.15;;;1.10;99.90;;;;;;4908694;29;20092;-74
2021/01/23 07:16:25;;;;;;;30.60;11.52;;;1.10;99.90;;;;;;4907316;29;20041;-74
2021/01/23 07:18:56;;;;;;;27.85;11.70;;;1.10;99.90;;;;;;4908689;29;20024;-73
2021/01/23 07:21:22;;;;;;;31.17;10.05;;;1.10;99.90;;;;;;4908697;29;20036;-74
2021/01/23 07:23:48;;;;;;;21.98;10.45;;;1.10;99.90;;;;;;4908501;29;20048;-73
2021/01/23 07:26:16;;;;;;;23.88;10.95;;;1.10;99.90;;;;;;4908612;29;20028;-73
2021/01/23 07:28:54;;;;;;;20.20;10.48;;;1.10;99.90;;;;;;4909300;29;20393;-72
2021/01/23 07:31:38;;;;;;;24.63;10.90;;;1.10;99.90;;;;;;4912394;29;20517;-72
2021/01/23 07:34:12;;;;;;;26.40;10.52;;;1.10;99.90;;;;;;4927322;29;20028;-73
2021/01/23 07:36:45;;;;;;;20.17;9.00;;;1.10;99.90;;;;;;4929654;29;20044;-72
2021/01/23 07:39:29;;;;;;;20.35;9.80;;;1.10;99.90;;;;;;4930596;29;20097;-72
2021/01/23 07:41:55;;;;;;;25.83;8.50;;;1.10;99.90;;;;;;4931182;29;20043;-73
2021/01/23 07:44:24;;;;;;;24.10;10.10;;;1.10;99.90;;;;;;4929830;29;20120;-73
2021/01/23 07:46:51;;;;;;;22.52;10.43;;;1.10;99.90;;;;;;4929133;29;20028;-73
2021/01/23 07:49:27;;;;;;;19.55;9.95;;;1.20;99.90;;;;;;4930181;29;20059;-73
2021/01/23 07:52:06;;;;;;;27.75;9.90;;;1.20;99.90;;;;;;4929839;29;20028;-73
2021/01/23 07:54:31;;;;;;;24.30;10.35;;;1.20;99.90;;;;;;4930949;29;20032;-72
2021/01/23 07:56:58;;;;;;;22.15;10.68;;;1.20;99.90;;;;;;4929068;29;20043;-73
2021/01/23 07:59:46;;;;;;;20.80;10.27;;;1.10;99.90;;;;;;4928843;29;20100;-72
2021/01/23 08:02:13;;;;;;;22.45;9.05;;;1.10;99.90;;;;;;4929638;29;20052;-73
2021/01/23 08:04:39;;;;;;;20.48;9.20;;;1.10;99.90;;;;;;4928606;29;20032;-74
2021/01/23 08:07:22;;;;;;;23.08;10.57;;;1.20;99.90;;;;;;4930343;29;20101;-73
2021/01/23 08:10:12;;;;;;;17.95;8.65;;;1.20;99.90;;;;;;4929349;29;20036;-72
2021/01/23 08:12:40;;;;;;;21.95;9.82;;;1.20;99.90;;;;;;4928584;29;20111;-73
2021/01/23 08:15:07;;;;;;;19.38;9.65;;;1.40;99.90;;;;;;4930083;29;20040;-73
2021/01/23 08:17:51;;;;;;;19.38;9.50;;;1.30;99.90;;;;;;4929882;29;20556;-74
2021/01/23 08:20:29;;;;;;;17.58;8.32;;;1.40;99.90;;;;;;4927145;29;20127;-73
2021/01/23 08:23:24;;;;;;;20.02;9.88;;;1.40;99.90;;;;;;4929582;29;20032;-73
2021/01/23 08:25:54;;;;;;;25.23;9.25;;;1.40;99.90;;;;;;4927558;29;20040;-72
2021/01/23 08:28:33;;;;;;;15.25;8.48;;;1.50;99.90;;;;;;4927776;29;20052;-73
2021/01/23 08:31:18;;;;;;;29.65;11.38;;;1.60;99.90;;;;;;4929913;29;20035;-72
2021/01/23 08:33:52;;;;;;;21.58;10.00;;;1.60;99.90;;;;;;4928981;29;20036;-73
2021/01/23 08:36:18;;;;;;;;;;;1.70;99.90;;;;;;4927992;29;20036;-72
2021/01/23 08:38:44;;;;;;;21.70;8.70;;;1.70;99.90;;;;;;4928535;29;19957;-73
2021/01/23 08:41:09;;;;;;;19.35;8.38;;;1.70;99.90;;;;;;4928414;29;20032;-73
2021/01/23 08:43:35;;;;;;;25.73;9.35;;;1.80;99.90;;;;;;4929223;29;20039;-73
2021/01/23 08:46:01;;;;;;;26.52;10.07;;;1.80;99.90;;;;;;4929228;29;20053;-73
2021/01/23 08:48:27;;;;;;;18.17;9.13;;;1.90;99.90;;;;;;4927680;29;20028;-73
2021/01/23 08:50:52;;;;;;;19.60;9.55;;;1.90;99.90;;;;;;4928747;29;20665;-73
2021/01/23 08:53:18;;;;;;;17.38;7.82;;;1.90;99.90;;;;;;4928909;29;20595;-73
2021/01/23 08:55:43;;;;;;;21.13;9.40;;;1.90;99.90;;;;;;4928889;29;20039;-72
2021/01/23 08:58:09;;;;;;;17.30;8.57;;;1.90;99.90;;;;;;4927316;29;20032;-72
2021/01/23 09:00:34;;;;;;;16.38;8.93;;;1.90;99.90;;;;;;4929086;29;20132;-72
2021/01/23 09:03:02;;;;;;;14.93;8.45;;;2.00;99.90;;;;;;4927188;29;20028;-73
2021/01/23 09:05:28;;;;;;;25.83;9.48;;;2.00;99.90;;;;;;4928126;29;20028;-73
2021/01/23 09:07:53;;;;;;;14.85;7.55;;;2.00;99.90;;;;;;4917185;29;20044;-72
2021/01/23 09:10:20;;;;;;;20.40;8.23;;;2.10;99.90;;;;;;4909268;29;20033;-72
2021/01/23 09:12:47;;;;;;;21.98;8.65;;;2.00;99.90;;;;;;4908712;29;20092;-73
2021/01/23 09:15:14;;;;;;;13.75;7.63;;;2.10;99.90;;;;;;4909643;29;20032;-72
2021/01/23 09:17:39;;;;;;;14.80;7.22;;;2.10;99.90;;;;;;4909917;29;20061;-73
2021/01/23 09:20:07;;;;;;;17.27;8.07;;;2.20;99.90;;;;;;4910043;29;20024;-73
2021/01/23 09:22:33;;;;;;;19.98;9.07;;;2.20;99.90;;;;;;4910031;29;20028;-74
2021/01/23 09:25:00;;;;;;;21.13;9.52;;;2.20;99.90;;;;;;4914922;29;20036;-73
2021/01/23 09:27:27;;;;;;;16.02;6.85;;;2.30;99.90;;;;;;4911292;29;20061;-72
2021/01/23 09:29:53;;;;;;;12.30;6.35;;;2.30;99.90;;;;;;4910466;29;20040;-72
2021/01/23 09:32:20;;;;;;;24.08;9.02;;;2.30;99.90;;;;;;4921124;29;20432;-71
2021/01/23 09:34:45;;;;;;;21.65;9.63;;;2.40;99.90;;;;;;4910280;29;20105;-72
2021/01/23 09:37:11;;;;;;;13.20;7.75;;;2.40;99.90;;;;;;4909864;29;20049;-72
2021/01/23 09:39:37;;;;;;;19.13;8.77;;;2.50;99.90;;;;;;4910055;29;20163;-73
2021/01/23 09:42:03;;;;;;;16.83;7.93;;;2.50;99.90;;;;;;4910136;29;20045;-72
2021/01/23 09:44:29;;;;;;;15.85;8.45;;;2.60;99.90;;;;;;4910158;29;20109;-72
2021/01/23 09:46:55;;;;;;;20.15;8.57;;;2.60;99.90;;;;;;4910606;29;20032;-73
2021/01/23 09:49:21;;;;;;;16.45;7.40;;;2.60;99.90;;;;;;4909747;29;20084;-73
2021/01/23 09:51:48;;;;;;;20.15;7.57;;;2.60;99.90;;;;;;4910095;29;20039;-72
2021/01/23 09:54:13;;;;;;;19.58;8.25;;;2.70;99.90;;;;;;4909504;29;20061;-73
2021/01/23 09:56:39;;;;;;;15.45;6.70;;;2.70;99.90;;;;;;4909919;29;20044;-74
2021/01/23 09:59:05;;;;;;;14.00;7.82;;;2.70;99.90;;;;;;4910582;29;20037;-74
2021/01/23 10:01:30;;;;;;;27.45;9.68;;;2.70;99.90;;;;;;4910297;29;20024;-73
2021/01/23 10:03:56;;;;;;;12.77;6.95;;;2.70;99.90;;;;;;4909707;29;20078;-74
2021/01/23 10:06:23;;;;;;;20.23;9.23;;;2.80;99.90;;;;;;4910199;29;20044;-72
2021/01/23 10:08:48;;;;;;;14.77;7.80;;;2.80;99.90;;;;;;4910234;29;20032;-72
2021/01/23 10:11:14;;;;;;;20.58;8.35;;;2.80;99.90;;;;;;4909500;29;20035;-72
2021/01/23 10:13:39;;;;;;;12.25;7.05;;;2.80;99.90;;;;;;4908728;29;20038;-72
2021/01/23 10:16:05;;;;;;;13.38;5.95;;;2.90;99.90;;;;;;4908896;29;20052;-72
2021/01/23 10:18:35;;;;;;;19.13;7.90;;;2.90;99.90;;;;;;4909208;29;20039;-72
2021/01/23 10:21:07;;;;;;;20.98;8.27;;;2.90;99.90;;;;;;4909787;29;20095;-73
2021/01/23 10:23:33;;;;;;;13.45;7.63;;;3.00;99.90;;;;;;4909604;29;20032;-73
2021/01/23 10:26:00;;;;;;;15.27;5.80;;;3.00;99.90;;;;;;4904396;29;20037;-72
2021/01/23 10:28:29;;;;;;;12.15;6.10;;;3.10;99.90;;;;;;4890646;29;20056;-74
2021/01/23 10:30:55;;;;;;;14.05;6.55;;;3.10;99.90;;;;;;4890979;29;20025;-73
2021/01/23 10:33:21;;;;;;;13.68;6.82;;;3.20;99.90;;;;;;4889124;29;20060;-72
2021/01/23 10:35:46;;;;;;;16.52;6.25;;;3.20;99.90;;;;;;4890575;29;20025;-71
2021/01/23 10:38:12;;;;;;;9.20;6.05;;;3.30;99.90;;;;;;4890216;29;20045;-73
2021/01/23 10:40:38;;;;;;;12.95;6.78;;;3.30;99.90;;;;;;4893656;29;20024;-72
2021/01/23 10:43:04;;;;;;;22.83;7.63;;;3.40;99.90;;;;;;4908043;29;20033;-71
2021/01/23 10:45:30;;;;;;;15.18;6.10;;;3.40;99.90;;;;;;4908516;29;20029;-70
2021/01/23 10:47:56;;;;;;;16.60;7.53;;;3.50;99.90;;;;;;4907381;29;20544;-71
2021/01/23 10:50:22;;;;;;;8.82;5.25;;;3.50;99.90;;;;;;4908611;29;20043;-71
2021/01/23 10:52:47;;;;;;;13.02;6.57;;;3.60;99.90;;;;;;4908412;29;20025;-72
2021/01/23 10:55:13;;;;;;;13.23;6.10;;;3.70;99.90;;;;;;4908525;29;20041;-71
2021/01/23 10:57:39;;;;;;;9.98;5.65;;;3.80;99.90;;;;;;4907915;29;20047;-71
2021/01/23 11:00:06;;;;;;;11.65;5.93;;;3.90;99.90;;;;;;4908784;29;20032;-71
2021/01/23 11:02:32;;;;;;;9.40;4.88;;;4.10;99.90;;;;;;4909560;29;20493;-73
2021/01/23 11:04:58;;;;;;;11.95;6.40;;;4.30;99.90;;;;;;4911680;29;20028;-72
2021/01/23 11:07:24;;;;;;;10.82;5.88;;;4.50;99.90;;;;;;4912241;29;20037;-72
2021/01/23 11:09:49;;;;;;;7.85;4.85;;;4.60;99.90;;;;;;4912263;29;20552;-72
2021/01/23 11:12:15;;;;;;;10.60;6.00;;;4.60;99.90;;;;;;4911707;29;20033;-72
2021/01/23 11:14:41;;;;;;;15.35;5.20;;;4.60;99.90;;;;;;4912009;29;20029;-73
2021/01/23 11:17:06;;;;;;;8.35;4.13;;;4.60;99.90;;;;;;4911922;29;20087;-72
2021/01/23 11:19:33;;;;;;;9.07;4.47;;;4.50;99.90;;;;;;4911704;29;20035;-73
2021/01/23 11:21:59;;;;;;;10.27;5.25;;;4.50;99.90;;;;;;4911039;29;20068;-72
2021/01/23 11:24:28;;;;;;;8.45;4.32;;;4.50;99.90;;;;;;4912067;29;20032;-71
2021/01/23 11:26:54;;;;;;;11.32;5.47;;;4.50;99.90;;;;;;4911442;29;20040;-73
2021/01/23 11:29:20;;;;;;;15.27;6.35;;;4.50;99.90;;;;;;4912042;29;20036;-71
2021/01/23 11:31:45;;;;;;;8.18;4.75;;;4.50;99.90;;;;;;4911947;29;20029;-71
2021/01/23 11:34:11;;;;;;;12.95;3.63;;;4.50;99.90;;;;;;4911474;29;20043;-72
2021/01/23 11:36:37;;;;;;;9.52;4.35;;;4.50;99.90;;;;;;4910395;29;20045;-70
2021/01/23 11:39:03;;;;;;;12.15;5.43;;;4.50;99.90;;;;;;4911820;29;20033;-72
2021/01/23 11:41:29;;;;;;;8.75;5.03;;;4.50;99.90;;;;;;4911394;29;20057;-71
2021/01/23 11:43:54;;;;;;;12.88;6.07;;;4.50;99.90;;;;;;4911547;29;20144;-71
2021/01/23 11:46:20;;;;;;;9.45;4.57;;;4.50;99.90;;;;;;4910559;29;20080;-71
2021/01/23 11:48:45;;;;;;;10.75;5.13;;;4.40;99.90;;;;;;4910759;29;20039;-71
2021/01/23 11:51:11;;;;;;;8.98;5.00;;;4.40;99.90;;;;;;4910521;29;20027;-71
2021/01/23 11:53:37;;;;;;;8.82;5.22;;;4.40;99.90;;;;;;4909838;29;20479;-71
2021/01/23 11:56:02;;;;;;;16.23;5.78;;;4.50;99.90;;;;;;4910619;29;20024;-71
2021/01/23 11:58:28;;;;;;;8.85;3.88;;;4.50;99.90;;;;;;4911484;29;20040;-71
2021/01/23 12:00:53;;;;;;;11.82;5.15;;;4.60;99.90;;;;;;4910914;29;20195;-71
2021/01/23 12:03:19;;;;;;;10.23;4.75;;;4.60;99.90;;;;;;4911220;29;20040;-71
2021/01/23 12:05:44;;;;;;;10.57;4.55;;;4.70;99.90;;;;;;4911318;29;20036;-72
2021/01/23 12:08:10;;;;;;;5.50;3.95;;;4.70;99.90;;;;;;4911235;29;20384;-70
2021/01/23 12:10:36;;;;;;;8.18;4.60;;;4.70;99.90;;;;;;4909824;29;20076;-73
2021/01/23 12:13:01;;;;;;;7.60;3.78;;;4.80;99.90;;;;;;4911304;29;20032;-73
2021/01/23 12:15:27;;;;;;;13.40;4.47;;;4.90;99.90;;;;;;4909303;29;20060;-71
2021/01/23 12:17:53;;;;;;;9.07;4.43;;;5.10;99.90;;;;;;4910774;29;20080;-70
2021/01/23 12:20:20;;;;;;;5.93;3.72;;;5.60;99.90;;;;;;4910847;29;20020;-70
2021/01/23 12:22:46;;;;;;;13.20;5.43;;;6.40;99.90;;;;;;4910593;29;20035;-72
2021/01/23 12:25:12;;;;;;;11.63;5.05;;;7.30;99.90;;;;;;4910835;29;20135;-71
2021/01/23 12:27:38;;;;;;;13.10;5.47;;;7.70;99.90;;;;;;4909811;29;20059;-72
2021/01/23 12:30:10;;;;;;;9.40;4.50;;;7.90;99.90;;;;;;4909981;29;20033;-72
2021/01/23 12:32:36;;;;;;;10.90;5.07;;;8.20;99.90;;;;;;4910893;29;20036;-69
2021/01/23 12:35:07;;;;;;;9.13;5.85;;;8.60;99.90;;;;;;4910237;29;20039;-74
2021/01/23 12:37:33;;;;;;;8.82;5.18;;;9.00;99.90;;;;;;4910587;29;20073;-71
2021/01/23 12:39:59;;;;;;;13.15;6.68;;;9.20;99.90;;;;;;4910419;29;20032;-70
2021/01/23 12:42:26;;;;;;;7.07;3.90;;;9.30;99.90;;;;;;4908652;29;20033;-71
2021/01/23 12:44:51;;;;;;;10.13;4.13;;;9.70;99.90;;;;;;4910323;29;20088;-70
2021/01/23 12:47:17;;;;;;;8.93;4.72;;;9.80;99.90;;;;;;4910418;29;20386;-71
2021/01/23 12:49:43;;;;;;;9.02;4.57;;;9.60;99.90;;;;;;4909996;29;20024;-71
2021/01/23 12:52:09;;;;;;;10.48;4.22;;;9.10;99.90;;;;;;4910356;29;20193;-71